logo
Search for airport 
image banner adimage banner adimage banner ad
image banner ad

CYOH - Oxford House

Located in , Canada

ICAO - CYOH, IATA - YOH

Data provided by Airmate  

General information

Coordinates: N54°55'59" W95°16'44"
Elevation is 663 feet MSL.
Magnetic variation is 0.55° East
View others Airports in Manitoba

Operational data

Special qualification required
Current time UTC:
Current local time:
Weather at : - ( 0 km )
METAR: PAPH 161927Z AUTO 25008KT 4SM BR OVC009 08/07 A3000 RMK AO2 CIG 007V011 $
View NOTAMs / SUP AIP / TFR affecting this airport [VIEW]
Communications frequencies: [VIEW]

Runways:

RWY identifierQFULength (ft)Width (ft)SurfaceLDA (ft)
0550°382882GRAVE3828
23230°382882GRAVE3828

Airport contact information

Address: Canada

Satellite view of CYOH